Aérodrome :
LOGIN :

S'inscrire | Disclaimer

   EN    FR    IT 

 










Légende :    VFR   VFR Marginal   IFR   IFR Intensif   IFR Très Intensif
Visi : 
Plafond : 
>= 8 km
>= 3000ft
5 à 8 km
1000 à 3000 ft
1500m à 5 km
500 à 1000 ft
800 à 1500m
200 à 500 ft
< 800m
< 200 ft
Symboles :   Orages  Brouillard  Fortes neiges  Fortes précipitations  Vent > 20 kt
SIGMETs :   Divers  Orages  Givrage  Turbulence  Onde Orograph.  Cendres Volcan.






- Altitude de l'aérodrome : 614 ft
- Code IATA : CRL


EBCI - Charleroi

DERNIER METAR :
  • 020950Z 22010KT 190V250 CAVOK 21/08 Q1022 NOSIG

METARs EXPIRÉS :
  • 020920Z 20009KT 170V240 CAVOK 20/07 Q1022 NOSIG
  • 020850Z 20008KT 150V240 9999 FEW045 20/08 Q1022 NOSIG
  • 020820Z 20008KT 150V230 9999 FEW035 19/08 Q1022 NOSIG
  • 012150Z 23002KT CAVOK 13/09 Q1022 NOSIG
  • 020750Z 17009KT 150V210 CAVOK 19/09 Q1022 NOSIG
  • 020720Z 17006KT 140V220 CAVOK 18/10 Q1022 NOSIG

TAF TAF EBCI
Valide du 02 à 06h jusqu'au 03 à 12h UTC


020501Z 0206/0312 20009KT 9999 FEW040
BECMG 0310/0312 27010KT



MET'MAP, la Météo Aéronautique d'un coup d'oeil ! - Copyright ORBIFLY Décembre 2007 - Disclaimer

ORBIFLY MET'MAP TEAM :

Programmation & Développement : Alexandra Zaïnal
Sur une idée originale de : Baudouin d'Aumeries
Soutien technique & logistique : Manuel Goepfert
Assistance : Marc-Olivier Méhu




SOURCES & CREDITS :

   NOAA